sensor_id;sensor_type;location;lat;lon;timestamp;P1;durP1;ratioP1;P2;durP2;ratioP2
50337;SDS011;46221;51.178;5.900;2023-05-10T00:01:01;3.20;;;2.25;;
50337;SDS011;46221;51.178;5.900;2023-05-10T00:03:28;4.10;;;2.60;;
50337;SDS011;46221;51.178;5.900;2023-05-10T00:05:55;3.25;;;2.33;;
50337;SDS011;46221;51.178;5.900;2023-05-10T00:08:21;4.40;;;2.00;;
50337;SDS011;46221;51.178;5.900;2023-05-10T00:10:47;4.30;;;2.13;;
50337;SDS011;46221;51.178;5.900;2023-05-10T00:13:14;4.57;;;2.33;;
50337;SDS011;46221;51.178;5.900;2023-05-10T00:15:40;3.38;;;2.10;;
50337;SDS011;46221;51.178;5.900;2023-05-10T00:18:06;3.35;;;2.08;;
50337;SDS011;46221;51.178;5.900;2023-05-10T00:20:33;3.90;;;2.00;;
50337;SDS011;46221;51.178;5.900;2023-05-10T00:22:59;3.25;;;2.03;;
50337;SDS011;46221;51.178;5.900;2023-05-10T00:25:25;4.13;;;2.20;;
50337;SDS011;46221;51.178;5.900;2023-05-10T00:27:52;3.90;;;2.17;;
50337;SDS011;46221;51.178;5.900;2023-05-10T00:30:18;2.70;;;1.83;;
50337;SDS011;46221;51.178;5.900;2023-05-10T00:32:45;3.50;;;1.88;;
50337;SDS011;46221;51.178;5.900;2023-05-10T00:35:11;2.50;;;1.77;;
50337;SDS011;46221;51.178;5.900;2023-05-10T00:37:37;3.53;;;2.20;;
50337;SDS011;46221;51.178;5.900;2023-05-10T00:40:04;2.28;;;1.70;;
50337;SDS011;46221;51.178;5.900;2023-05-10T00:42:31;2.42;;;1.60;;
50337;SDS011;46221;51.178;5.900;2023-05-10T00:44:57;2.67;;;1.70;;
50337;SDS011;46221;51.178;5.900;2023-05-10T00:47:24;2.47;;;1.83;;
50337;SDS011;46221;51.178;5.900;2023-05-10T00:49:50;3.38;;;1.80;;
50337;SDS011;46221;51.178;5.900;2023-05-10T00:52:17;2.88;;;1.65;;
50337;SDS011;46221;51.178;5.900;2023-05-10T00:54:43;2.80;;;1.70;;
50337;SDS011;46221;51.178;5.900;2023-05-10T00:57:10;2.50;;;1.77;;
50337;SDS011;46221;51.178;5.900;2023-05-10T00:59:37;3.20;;;2.08;;
50337;SDS011;46221;51.178;5.900;2023-05-10T01:02:03;3.97;;;2.13;;
50337;SDS011;46221;51.178;5.900;2023-05-10T01:04:30;3.13;;;2.20;;
50337;SDS011;46221;51.178;5.900;2023-05-10T01:06:56;6.03;;;3.22;;
50337;SDS011;46221;51.178;5.900;2023-05-10T01:09:23;4.68;;;2.30;;
50337;SDS011;46221;51.178;5.900;2023-05-10T01:11:52;4.40;;;2.20;;
50337;SDS011;46221;51.178;5.900;2023-05-10T01:14:19;5.70;;;2.90;;
50337;SDS011;46221;51.178;5.900;2023-05-10T01:16:46;3.10;;;2.03;;
50337;SDS011;46221;51.178;5.900;2023-05-10T01:24:38;6.25;;;3.03;;
50337;SDS011;46221;51.178;5.900;2023-05-10T01:34:53;3.90;;;2.88;;
50337;SDS011;46221;51.178;5.900;2023-05-10T01:37:21;4.40;;;2.83;;
50337;SDS011;46221;51.178;5.900;2023-05-10T01:42:16;4.90;;;3.08;;
50337;SDS011;46221;51.178;5.900;2023-05-10T01:44:55;4.47;;;2.97;;
50337;SDS011;46221;51.178;5.900;2023-05-10T01:47:25;4.07;;;3.00;;
50337;SDS011;46221;51.178;5.900;2023-05-10T01:49:55;4.20;;;3.40;;
50337;SDS011;46221;51.178;5.900;2023-05-10T01:52:24;4.45;;;3.08;;
50337;SDS011;46221;51.178;5.900;2023-05-10T01:54:55;10.73;;;3.33;;
50337;SDS011;46221;51.178;5.900;2023-05-10T01:57:24;5.18;;;3.22;;
50337;SDS011;46221;51.178;5.900;2023-05-10T01:59:51;6.07;;;2.80;;
50337;SDS011;46221;51.178;5.900;2023-05-10T02:02:19;4.35;;;2.85;;
50337;SDS011;46221;51.178;5.900;2023-05-10T02:04:46;4.88;;;3.05;;
50337;SDS011;46221;51.178;5.900;2023-05-10T02:07:13;4.70;;;2.97;;
50337;SDS011;46221;51.178;5.900;2023-05-10T02:09:40;4.55;;;3.10;;
50337;SDS011;46221;51.178;5.900;2023-05-10T02:12:07;4.03;;;3.15;;
50337;SDS011;46221;51.178;5.900;2023-05-10T02:14:35;4.50;;;3.08;;
50337;SDS011;46221;51.178;5.900;2023-05-10T02:17:02;4.22;;;3.03;;
50337;SDS011;46221;51.178;5.900;2023-05-10T02:19:31;5.28;;;3.58;;
50337;SDS011;46221;51.178;5.900;2023-05-10T02:21:58;4.72;;;3.50;;
50337;SDS011;46221;51.178;5.900;2023-05-10T02:24:25;4.78;;;3.53;;
50337;SDS011;46221;51.178;5.900;2023-05-10T02:26:53;5.28;;;3.50;;
50337;SDS011;46221;51.178;5.900;2023-05-10T02:29:20;6.55;;;3.92;;
50337;SDS011;46221;51.178;5.900;2023-05-10T02:31:49;5.35;;;3.58;;
50337;SDS011;46221;51.178;5.900;2023-05-10T02:34:17;5.88;;;3.60;;
50337;SDS011;46221;51.178;5.900;2023-05-10T02:36:43;6.40;;;4.18;;
50337;SDS011;46221;51.178;5.900;2023-05-10T02:39:10;5.63;;;4.03;;
50337;SDS011;46221;51.178;5.900;2023-05-10T02:41:40;5.93;;;4.32;;
50337;SDS011;46221;51.178;5.900;2023-05-10T02:44:07;6.43;;;4.30;;
50337;SDS011;46221;51.178;5.900;2023-05-10T02:46:34;5.97;;;4.10;;
50337;SDS011;46221;51.178;5.900;2023-05-10T02:49:00;7.45;;;4.43;;
50337;SDS011;46221;51.178;5.900;2023-05-10T02:51:28;6.13;;;4.60;;
50337;SDS011;46221;51.178;5.900;2023-05-10T02:53:57;5.43;;;4.15;;
50337;SDS011;46221;51.178;5.900;2023-05-10T02:56:31;6.07;;;4.47;;
50337;SDS011;46221;51.178;5.900;2023-05-10T02:58:58;5.15;;;4.10;;
50337;SDS011;46221;51.178;5.900;2023-05-10T03:01:24;5.63;;;4.20;;
50337;SDS011;46221;51.178;5.900;2023-05-10T03:03:50;4.90;;;4.22;;
50337;SDS011;46221;51.178;5.900;2023-05-10T03:06:17;8.13;;;4.75;;
50337;SDS011;46221;51.178;5.900;2023-05-10T03:08:43;6.00;;;4.43;;
50337;SDS011;46221;51.178;5.900;2023-05-10T03:13:59;6.05;;;4.18;;
50337;SDS011;46221;51.178;5.900;2023-05-10T03:16:33;6.88;;;4.18;;
50337;SDS011;46221;51.178;5.900;2023-05-10T03:19:06;5.20;;;4.35;;
50337;SDS011;46221;51.178;5.900;2023-05-10T03:21:38;5.65;;;4.22;;
50337;SDS011;46221;51.178;5.900;2023-05-10T03:24:07;5.60;;;4.28;;
50337;SDS011;46221;51.178;5.900;2023-05-10T03:26:34;6.43;;;4.15;;
50337;SDS011;46221;51.178;5.900;2023-05-10T03:29:01;6.90;;;4.35;;
50337;SDS011;46221;51.178;5.900;2023-05-10T03:31:28;5.75;;;3.90;;
50337;SDS011;46221;51.178;5.900;2023-05-10T03:33:54;6.53;;;4.38;;
50337;SDS011;46221;51.178;5.900;2023-05-10T03:36:20;5.70;;;4.25;;
50337;SDS011;46221;51.178;5.900;2023-05-10T03:38:47;5.72;;;4.13;;
50337;SDS011;46221;51.178;5.900;2023-05-10T03:41:13;8.65;;;4.32;;
50337;SDS011;46221;51.178;5.900;2023-05-10T03:43:40;5.22;;;3.83;;
50337;SDS011;46221;51.178;5.900;2023-05-10T03:46:07;6.72;;;4.03;;
50337;SDS011;46221;51.178;5.900;2023-05-10T03:48:33;5.82;;;3.90;;
50337;SDS011;46221;51.178;5.900;2023-05-10T03:50:59;6.30;;;4.00;;
50337;SDS011;46221;51.178;5.900;2023-05-10T03:53:26;6.70;;;4.05;;
50337;SDS011;46221;51.178;5.900;2023-05-10T03:55:52;5.88;;;3.85;;
50337;SDS011;46221;51.178;5.900;2023-05-10T03:58:19;5.88;;;4.38;;
50337;SDS011;46221;51.178;5.900;2023-05-10T04:00:45;6.00;;;4.03;;
50337;SDS011;46221;51.178;5.900;2023-05-10T04:03:12;5.90;;;4.55;;
50337;SDS011;46221;51.178;5.900;2023-05-10T04:05:38;8.07;;;3.90;;
50337;SDS011;46221;51.178;5.900;2023-05-10T04:08:05;7.03;;;4.35;;
50337;SDS011;46221;51.178;5.900;2023-05-10T04:10:32;8.05;;;4.22;;
50337;SDS011;46221;51.178;5.900;2023-05-10T04:12:58;5.95;;;4.22;;
50337;SDS011;46221;51.178;5.900;2023-05-10T04:15:24;6.20;;;4.15;;
50337;SDS011;46221;51.178;5.900;2023-05-10T04:17:51;6.32;;;4.15;;
50337;SDS011;46221;51.178;5.900;2023-05-10T04:20:17;5.95;;;4.30;;
50337;SDS011;46221;51.178;5.900;2023-05-10T04:22:44;6.32;;;4.40;;
50337;SDS011;46221;51.178;5.900;2023-05-10T04:25:11;7.40;;;4.88;;
50337;SDS011;46221;51.178;5.900;2023-05-10T04:27:37;8.95;;;4.28;;
50337;SDS011;46221;51.178;5.900;2023-05-10T04:30:04;7.47;;;5.28;;
50337;SDS011;46221;51.178;5.900;2023-05-10T04:32:30;6.25;;;4.25;;
50337;SDS011;46221;51.178;5.900;2023-05-10T04:34:57;7.20;;;4.28;;
50337;SDS011;46221;51.178;5.900;2023-05-10T04:37:23;6.15;;;4.18;;
50337;SDS011;46221;51.178;5.900;2023-05-10T04:39:50;6.63;;;4.22;;
50337;SDS011;46221;51.178;5.900;2023-05-10T04:42:16;7.22;;;4.70;;
50337;SDS011;46221;51.178;5.900;2023-05-10T04:44:42;7.90;;;4.70;;
50337;SDS011;46221;51.178;5.900;2023-05-10T04:47:09;6.80;;;4.88;;
50337;SDS011;46221;51.178;5.900;2023-05-10T04:49:37;8.10;;;5.07;;
50337;SDS011;46221;51.178;5.900;2023-05-10T04:52:04;7.07;;;5.10;;
50337;SDS011;46221;51.178;5.900;2023-05-10T04:54:30;6.75;;;4.43;;
50337;SDS011;46221;51.178;5.900;2023-05-10T04:56:57;6.93;;;5.03;;
50337;SDS011;46221;51.178;5.900;2023-05-10T04:59:23;8.85;;;5.50;;
50337;SDS011;46221;51.178;5.900;2023-05-10T05:01:49;7.80;;;5.00;;
50337;SDS011;46221;51.178;5.900;2023-05-10T05:04:16;8.30;;;5.43;;
50337;SDS011;46221;51.178;5.900;2023-05-10T05:06:42;8.93;;;5.22;;
50337;SDS011;46221;51.178;5.900;2023-05-10T05:09:08;9.80;;;6.47;;
50337;SDS011;46221;51.178;5.900;2023-05-10T05:11:36;8.10;;;5.32;;
50337;SDS011;46221;51.178;5.900;2023-05-10T05:14:02;8.95;;;5.68;;
50337;SDS011;46221;51.178;5.900;2023-05-10T05:16:30;8.38;;;5.38;;
50337;SDS011;46221;51.178;5.900;2023-05-10T05:18:57;8.50;;;5.60;;
50337;SDS011;46221;51.178;5.900;2023-05-10T05:21:23;11.05;;;5.72;;
50337;SDS011;46221;51.178;5.900;2023-05-10T05:23:51;9.05;;;6.07;;
50337;SDS011;46221;51.178;5.900;2023-05-10T05:26:17;8.38;;;6.00;;
50337;SDS011;46221;51.178;5.900;2023-05-10T05:28:43;8.85;;;5.28;;
50337;SDS011;46221;51.178;5.900;2023-05-10T05:31:10;7.68;;;5.20;;
50337;SDS011;46221;51.178;5.900;2023-05-10T05:33:36;7.93;;;5.30;;
50337;SDS011;46221;51.178;5.900;2023-05-10T05:36:04;8.68;;;5.35;;
50337;SDS011;46221;51.178;5.900;2023-05-10T05:38:31;9.73;;;5.68;;
50337;SDS011;46221;51.178;5.900;2023-05-10T05:40:57;8.35;;;5.57;;
50337;SDS011;46221;51.178;5.900;2023-05-10T05:43:23;11.15;;;5.68;;
50337;SDS011;46221;51.178;5.900;2023-05-10T05:45:52;7.88;;;4.78;;
50337;SDS011;46221;51.178;5.900;2023-05-10T05:48:20;11.32;;;5.05;;
50337;SDS011;46221;51.178;5.900;2023-05-10T05:50:46;8.38;;;5.95;;
50337;SDS011;46221;51.178;5.900;2023-05-10T05:53:12;8.43;;;6.25;;
50337;SDS011;46221;51.178;5.900;2023-05-10T05:55:39;9.00;;;5.53;;
50337;SDS011;46221;51.178;5.900;2023-05-10T05:58:05;10.82;;;5.70;;
50337;SDS011;46221;51.178;5.900;2023-05-10T06:00:32;9.38;;;5.80;;
50337;SDS011;46221;51.178;5.900;2023-05-10T06:02:58;10.25;;;6.15;;
50337;SDS011;46221;51.178;5.900;2023-05-10T06:05:24;10.10;;;5.47;;
50337;SDS011;46221;51.178;5.900;2023-05-10T06:07:51;10.90;;;5.70;;
50337;SDS011;46221;51.178;5.900;2023-05-10T06:10:17;11.80;;;6.28;;
50337;SDS011;46221;51.178;5.900;2023-05-10T06:12:43;8.63;;;5.72;;
50337;SDS011;46221;51.178;5.900;2023-05-10T06:15:12;10.93;;;6.43;;
50337;SDS011;46221;51.178;5.900;2023-05-10T06:17:39;8.70;;;6.30;;
50337;SDS011;46221;51.178;5.900;2023-05-10T06:20:06;10.63;;;6.35;;
50337;SDS011;46221;51.178;5.900;2023-05-10T06:22:33;9.85;;;5.97;;
50337;SDS011;46221;51.178;5.900;2023-05-10T06:25:00;11.48;;;6.60;;
50337;SDS011;46221;51.178;5.900;2023-05-10T06:27:26;9.88;;;6.60;;
50337;SDS011;46221;51.178;5.900;2023-05-10T06:29:53;11.63;;;6.82;;
50337;SDS011;46221;51.178;5.900;2023-05-10T06:32:34;9.90;;;7.38;;
50337;SDS011;46221;51.178;5.900;2023-05-10T06:35:01;10.82;;;7.82;;
50337;SDS011;46221;51.178;5.900;2023-05-10T06:37:27;12.52;;;8.05;;
50337;SDS011;46221;51.178;5.900;2023-05-10T06:39:54;11.38;;;7.50;;
50337;SDS011;46221;51.178;5.900;2023-05-10T06:42:20;11.52;;;7.78;;
50337;SDS011;46221;51.178;5.900;2023-05-10T06:44:46;12.55;;;8.05;;
50337;SDS011;46221;51.178;5.900;2023-05-10T06:47:13;10.85;;;7.55;;
50337;SDS011;46221;51.178;5.900;2023-05-10T06:49:39;10.60;;;7.80;;
50337;SDS011;46221;51.178;5.900;2023-05-10T06:52:06;10.77;;;7.97;;
50337;SDS011;46221;51.178;5.900;2023-05-10T06:54:32;11.18;;;7.03;;
50337;SDS011;46221;51.178;5.900;2023-05-10T06:56:58;9.35;;;7.15;;
50337;SDS011;46221;51.178;5.900;2023-05-10T06:59:28;8.68;;;6.82;;
50337;SDS011;46221;51.178;5.900;2023-05-10T07:01:54;9.95;;;7.78;;
50337;SDS011;46221;51.178;5.900;2023-05-10T07:04:21;11.13;;;7.10;;
50337;SDS011;46221;51.178;5.900;2023-05-10T07:06:47;10.00;;;7.18;;
50337;SDS011;46221;51.178;5.900;2023-05-10T07:09:13;9.90;;;6.60;;
50337;SDS011;46221;51.178;5.900;2023-05-10T07:11:40;8.23;;;6.90;;
50337;SDS011;46221;51.178;5.900;2023-05-10T07:14:06;9.60;;;7.35;;
50337;SDS011;46221;51.178;5.900;2023-05-10T07:16:32;9.70;;;7.20;;
50337;SDS011;46221;51.178;5.900;2023-05-10T07:18:59;9.95;;;7.57;;
50337;SDS011;46221;51.178;5.900;2023-05-10T07:21:25;8.48;;;6.57;;
50337;SDS011;46221;51.178;5.900;2023-05-10T07:23:54;8.48;;;5.95;;
50337;SDS011;46221;51.178;5.900;2023-05-10T07:26:21;9.48;;;6.60;;
50337;SDS011;46221;51.178;5.900;2023-05-10T07:28:47;8.85;;;6.63;;
50337;SDS011;46221;51.178;5.900;2023-05-10T07:31:13;8.30;;;6.40;;
50337;SDS011;46221;51.178;5.900;2023-05-10T07:33:40;8.18;;;5.78;;
50337;SDS011;46221;51.178;5.900;2023-05-10T07:36:06;10.63;;;7.03;;
50337;SDS011;46221;51.178;5.900;2023-05-10T07:38:32;8.30;;;6.00;;
50337;SDS011;46221;51.178;5.900;2023-05-10T07:40:59;9.07;;;6.78;;
50337;SDS011;46221;51.178;5.900;2023-05-10T07:43:25;7.68;;;5.88;;
50337;SDS011;46221;51.178;5.900;2023-05-10T07:45:51;7.53;;;6.22;;
50337;SDS011;46221;51.178;5.900;2023-05-10T07:48:21;9.05;;;6.15;;
50337;SDS011;46221;51.178;5.900;2023-05-10T07:50:47;6.63;;;5.68;;
50337;SDS011;46221;51.178;5.900;2023-05-10T07:53:14;8.30;;;6.07;;
50337;SDS011;46221;51.178;5.900;2023-05-10T07:55:40;8.82;;;6.82;;
50337;SDS011;46221;51.178;5.900;2023-05-10T07:58:06;9.38;;;7.07;;
50337;SDS011;46221;51.178;5.900;2023-05-10T08:00:33;8.43;;;6.43;;
50337;SDS011;46221;51.178;5.900;2023-05-10T08:02:59;9.18;;;7.20;;
50337;SDS011;46221;51.178;5.900;2023-05-10T08:05:26;9.38;;;7.45;;
50337;SDS011;46221;51.178;5.900;2023-05-10T08:07:52;10.55;;;7.57;;
50337;SDS011;46221;51.178;5.900;2023-05-10T08:10:18;11.50;;;7.10;;
50337;SDS011;46221;51.178;5.900;2023-05-10T08:12:45;10.15;;;7.45;;
50337;SDS011;46221;51.178;5.900;2023-05-10T08:15:11;10.45;;;7.70;;
50337;SDS011;46221;51.178;5.900;2023-05-10T08:17:37;11.10;;;7.13;;
50337;SDS011;46221;51.178;5.900;2023-05-10T08:20:04;10.07;;;7.28;;
50337;SDS011;46221;51.178;5.900;2023-05-10T08:22:30;11.38;;;6.88;;
50337;SDS011;46221;51.178;5.900;2023-05-10T08:24:57;9.85;;;7.38;;
50337;SDS011;46221;51.178;5.900;2023-05-10T08:27:23;8.90;;;7.45;;
50337;SDS011;46221;51.178;5.900;2023-05-10T08:29:49;9.50;;;7.00;;
50337;SDS011;46221;51.178;5.900;2023-05-10T08:32:16;8.40;;;6.88;;
50337;SDS011;46221;51.178;5.900;2023-05-10T08:34:44;9.35;;;6.47;;
50337;SDS011;46221;51.178;5.900;2023-05-10T08:37:10;7.88;;;6.93;;
50337;SDS011;46221;51.178;5.900;2023-05-10T08:39:39;8.20;;;6.45;;
50337;SDS011;46221;51.178;5.900;2023-05-10T08:42:06;9.43;;;7.07;;
50337;SDS011;46221;51.178;5.900;2023-05-10T08:44:32;9.00;;;6.70;;
50337;SDS011;46221;51.178;5.900;2023-05-10T08:47:00;9.15;;;6.95;;
50337;SDS011;46221;51.178;5.900;2023-05-10T08:49:28;10.55;;;7.80;;
50337;SDS011;46221;51.178;5.900;2023-05-10T08:51:57;8.90;;;7.18;;
50337;SDS011;46221;51.178;5.900;2023-05-10T08:54:23;10.38;;;8.30;;
50337;SDS011;46221;51.178;5.900;2023-05-10T08:56:50;12.70;;;8.77;;
50337;SDS011;46221;51.178;5.900;2023-05-10T08:59:16;10.85;;;8.20;;
50337;SDS011;46221;51.178;5.900;2023-05-10T09:01:43;11.75;;;8.18;;
50337;SDS011;46221;51.178;5.900;2023-05-10T09:04:11;11.27;;;8.82;;
50337;SDS011;46221;51.178;5.900;2023-05-10T09:06:40;9.85;;;8.35;;
50337;SDS011;46221;51.178;5.900;2023-05-10T09:09:12;11.98;;;8.60;;
50337;SDS011;46221;51.178;5.900;2023-05-10T09:11:39;10.93;;;8.98;;
50337;SDS011;46221;51.178;5.900;2023-05-10T09:14:05;10.20;;;8.10;;
50337;SDS011;46221;51.178;5.900;2023-05-10T09:16:34;12.57;;;8.98;;
50337;SDS011;46221;51.178;5.900;2023-05-10T09:19:31;9.88;;;8.32;;
50337;SDS011;46221;51.178;5.900;2023-05-10T09:21:57;12.05;;;9.07;;
50337;SDS011;46221;51.178;5.900;2023-05-10T09:24:26;11.25;;;8.52;;
50337;SDS011;46221;51.178;5.900;2023-05-10T09:26:56;11.70;;;8.55;;
50337;SDS011;46221;51.178;5.900;2023-05-10T09:29:23;10.70;;;8.23;;
50337;SDS011;46221;51.178;5.900;2023-05-10T09:31:50;11.98;;;9.00;;
50337;SDS011;46221;51.178;5.900;2023-05-10T09:34:29;11.13;;;8.52;;
50337;SDS011;46221;51.178;5.900;2023-05-10T09:36:56;11.27;;;8.63;;
50337;SDS011;46221;51.178;5.900;2023-05-10T09:39:35;10.05;;;9.05;;
50337;SDS011;46221;51.178;5.900;2023-05-10T09:42:03;11.27;;;8.55;;
50337;SDS011;46221;51.178;5.900;2023-05-10T09:44:30;12.07;;;9.30;;
50337;SDS011;46221;51.178;5.900;2023-05-10T09:46:57;11.50;;;9.20;;
50337;SDS011;46221;51.178;5.900;2023-05-10T09:49:23;12.38;;;10.18;;
50337;SDS011;46221;51.178;5.900;2023-05-10T09:52:05;12.23;;;10.18;;
50337;SDS011;46221;51.178;5.900;2023-05-10T09:54:32;12.63;;;9.82;;
50337;SDS011;46221;51.178;5.900;2023-05-10T09:56:59;13.98;;;10.63;;
50337;SDS011;46221;51.178;5.900;2023-05-10T09:59:25;14.00;;;10.50;;
50337;SDS011;46221;51.178;5.900;2023-05-10T10:01:55;12.95;;;10.27;;
50337;SDS011;46221;51.178;5.900;2023-05-10T10:04:22;13.40;;;10.10;;
50337;SDS011;46221;51.178;5.900;2023-05-10T10:06:58;12.80;;;11.07;;
50337;SDS011;46221;51.178;5.900;2023-05-10T10:09:25;12.60;;;10.90;;
50337;SDS011;46221;51.178;5.900;2023-05-10T10:11:52;13.35;;;11.43;;
50337;SDS011;46221;51.178;5.900;2023-05-10T10:14:20;14.18;;;11.25;;
50337;SDS011;46221;51.178;5.900;2023-05-10T10:16:47;13.52;;;11.30;;
50337;SDS011;46221;51.178;5.900;2023-05-10T10:19:35;14.60;;;11.60;;
50337;SDS011;46221;51.178;5.900;2023-05-10T10:22:02;14.52;;;11.95;;
50337;SDS011;46221;51.178;5.900;2023-05-10T10:24:29;14.02;;;11.30;;
50337;SDS011;46221;51.178;5.900;2023-05-10T10:26:55;13.90;;;11.48;;
50337;SDS011;46221;51.178;5.900;2023-05-10T10:29:23;14.38;;;11.70;;
50337;SDS011;46221;51.178;5.900;2023-05-10T10:34:36;15.38;;;11.75;;
50337;SDS011;46221;51.178;5.900;2023-05-10T10:37:04;13.68;;;10.75;;
50337;SDS011;46221;51.178;5.900;2023-05-10T10:39:31;14.77;;;11.23;;
50337;SDS011;46221;51.178;5.900;2023-05-10T10:41:58;14.20;;;11.52;;
50337;SDS011;46221;51.178;5.900;2023-05-10T10:49:26;12.77;;;10.85;;
50337;SDS011;46221;51.178;5.900;2023-05-10T10:54:38;12.20;;;10.35;;
50337;SDS011;46221;51.178;5.900;2023-05-10T10:57:11;14.57;;;11.32;;
50337;SDS011;46221;51.178;5.900;2023-05-10T10:59:44;13.63;;;11.25;;
50337;SDS011;46221;51.178;5.900;2023-05-10T11:04:56;12.18;;;10.25;;
50337;SDS011;46221;51.178;5.900;2023-05-10T11:07:23;12.77;;;10.82;;
50337;SDS011;46221;51.178;5.900;2023-05-10T11:09:50;13.65;;;10.70;;
50337;SDS011;46221;51.178;5.900;2023-05-10T11:12:17;12.98;;;10.98;;
50337;SDS011;46221;51.178;5.900;2023-05-10T11:14:49;13.18;;;9.93;;
50337;SDS011;46221;51.178;5.900;2023-05-10T11:17:22;12.02;;;9.75;;
50337;SDS011;46221;51.178;5.900;2023-05-10T11:22:53;10.52;;;9.43;;
50337;SDS011;46221;51.178;5.900;2023-05-10T11:25:28;11.10;;;9.00;;
50337;SDS011;46221;51.178;5.900;2023-05-10T11:27:54;10.82;;;9.52;;
50337;SDS011;46221;51.178;5.900;2023-05-10T11:30:21;10.48;;;9.38;;
50337;SDS011;46221;51.178;5.900;2023-05-10T11:32:47;11.25;;;9.80;;
50337;SDS011;46221;51.178;5.900;2023-05-10T11:35:13;10.63;;;9.07;;
50337;SDS011;46221;51.178;5.900;2023-05-10T11:37:40;10.38;;;9.25;;
50337;SDS011;46221;51.178;5.900;2023-05-10T11:40:09;10.10;;;8.50;;
50337;SDS011;46221;51.178;5.900;2023-05-10T11:42:39;10.23;;;8.70;;
50337;SDS011;46221;51.178;5.900;2023-05-10T11:45:05;10.50;;;8.65;;
50337;SDS011;46221;51.178;5.900;2023-05-10T11:47:32;8.82;;;7.45;;
50337;SDS011;46221;51.178;5.900;2023-05-10T11:49:59;9.68;;;8.02;;
50337;SDS011;46221;51.178;5.900;2023-05-10T11:52:26;10.45;;;8.30;;
50337;SDS011;46221;51.178;5.900;2023-05-10T11:54:52;8.18;;;7.32;;
50337;SDS011;46221;51.178;5.900;2023-05-10T11:57:19;9.75;;;8.63;;
50337;SDS011;46221;51.178;5.900;2023-05-10T11:59:46;9.07;;;7.03;;
50337;SDS011;46221;51.178;5.900;2023-05-10T12:02:13;8.20;;;7.07;;
50337;SDS011;46221;51.178;5.900;2023-05-10T12:04:40;7.35;;;6.15;;
50337;SDS011;46221;51.178;5.900;2023-05-10T12:07:07;7.85;;;6.93;;
50337;SDS011;46221;51.178;5.900;2023-05-10T12:09:33;7.50;;;6.50;;
50337;SDS011;46221;51.178;5.900;2023-05-10T12:12:09;8.23;;;5.95;;
50337;SDS011;46221;51.178;5.900;2023-05-10T12:14:36;7.75;;;6.13;;
50337;SDS011;46221;51.178;5.900;2023-05-10T12:17:02;7.05;;;6.15;;
50337;SDS011;46221;51.178;5.900;2023-05-10T12:19:29;7.55;;;5.97;;
50337;SDS011;46221;51.178;5.900;2023-05-10T12:22:04;7.07;;;5.88;;
50337;SDS011;46221;51.178;5.900;2023-05-10T12:24:35;8.48;;;6.47;;
50337;SDS011;46221;51.178;5.900;2023-05-10T12:27:05;6.95;;;6.22;;
50337;SDS011;46221;51.178;5.900;2023-05-10T12:29:34;6.95;;;6.13;;
50337;SDS011;46221;51.178;5.900;2023-05-10T12:32:00;8.57;;;6.43;;
50337;SDS011;46221;51.178;5.900;2023-05-10T12:34:30;7.03;;;6.00;;
50337;SDS011;46221;51.178;5.900;2023-05-10T12:36:56;7.95;;;5.82;;
50337;SDS011;46221;51.178;5.900;2023-05-10T12:39:23;7.22;;;5.70;;
50337;SDS011;46221;51.178;5.900;2023-05-10T12:41:49;7.47;;;6.13;;
50337;SDS011;46221;51.178;5.900;2023-05-10T12:44:18;7.35;;;5.60;;
50337;SDS011;46221;51.178;5.900;2023-05-10T12:46:44;6.55;;;5.47;;
50337;SDS011;46221;51.178;5.900;2023-05-10T12:49:11;7.25;;;6.55;;
50337;SDS011;46221;51.178;5.900;2023-05-10T12:51:37;12.15;;;6.43;;
50337;SDS011;46221;51.178;5.900;2023-05-10T12:54:03;6.47;;;5.80;;
50337;SDS011;46221;51.178;5.900;2023-05-10T12:56:30;7.05;;;5.47;;
50337;SDS011;46221;51.178;5.900;2023-05-10T12:58:56;7.72;;;5.75;;
50337;SDS011;46221;51.178;5.900;2023-05-10T13:01:22;7.82;;;5.53;;
50337;SDS011;46221;51.178;5.900;2023-05-10T13:03:48;6.60;;;5.40;;
50337;SDS011;46221;51.178;5.900;2023-05-10T13:06:16;5.38;;;4.85;;
50337;SDS011;46221;51.178;5.900;2023-05-10T13:08:42;6.85;;;4.97;;
50337;SDS011;46221;51.178;5.900;2023-05-10T13:11:08;6.72;;;5.28;;
50337;SDS011;46221;51.178;5.900;2023-05-10T13:13:35;6.22;;;5.38;;
50337;SDS011;46221;51.178;5.900;2023-05-10T13:16:01;6.15;;;4.70;;
50337;SDS011;46221;51.178;5.900;2023-05-10T13:18:27;6.57;;;5.47;;
50337;SDS011;46221;51.178;5.900;2023-05-10T13:20:54;7.40;;;5.53;;
50337;SDS011;46221;51.178;5.900;2023-05-10T13:23:21;6.35;;;5.18;;
50337;SDS011;46221;51.178;5.900;2023-05-10T13:25:48;6.55;;;5.30;;
50337;SDS011;46221;51.178;5.900;2023-05-10T13:28:14;5.72;;;4.95;;
50337;SDS011;46221;51.178;5.900;2023-05-10T13:30:40;5.85;;;4.90;;
50337;SDS011;46221;51.178;5.900;2023-05-10T13:33:07;7.68;;;5.03;;
50337;SDS011;46221;51.178;5.900;2023-05-10T13:35:33;6.35;;;4.82;;
50337;SDS011;46221;51.178;5.900;2023-05-10T13:37:59;6.60;;;5.05;;
50337;SDS011;46221;51.178;5.900;2023-05-10T13:40:26;6.57;;;4.68;;
50337;SDS011;46221;51.178;5.900;2023-05-10T13:42:52;6.53;;;5.40;;
50337;SDS011;46221;51.178;5.900;2023-05-10T13:45:19;6.72;;;5.32;;
50337;SDS011;46221;51.178;5.900;2023-05-10T13:47:45;7.18;;;5.22;;
50337;SDS011;46221;51.178;5.900;2023-05-10T13:50:12;7.75;;;5.53;;
50337;SDS011;46221;51.178;5.900;2023-05-10T13:52:38;7.05;;;5.03;;
50337;SDS011;46221;51.178;5.900;2023-05-10T13:55:04;7.03;;;5.10;;
50337;SDS011;46221;51.178;5.900;2023-05-10T13:57:31;6.90;;;4.90;;
50337;SDS011;46221;51.178;5.900;2023-05-10T13:59:57;6.35;;;5.28;;
50337;SDS011;46221;51.178;5.900;2023-05-10T14:02:24;6.13;;;4.88;;
50337;SDS011;46221;51.178;5.900;2023-05-10T14:04:51;6.60;;;5.03;;
50337;SDS011;46221;51.178;5.900;2023-05-10T14:07:17;6.00;;;4.70;;
50337;SDS011;46221;51.178;5.900;2023-05-10T14:09:43;5.00;;;4.32;;
50337;SDS011;46221;51.178;5.900;2023-05-10T14:12:10;6.82;;;4.50;;
50337;SDS011;46221;51.178;5.900;2023-05-10T14:14:37;5.07;;;4.50;;
50337;SDS011;46221;51.178;5.900;2023-05-10T14:17:03;4.90;;;4.30;;
50337;SDS011;46221;51.178;5.900;2023-05-10T14:19:30;7.50;;;4.82;;
50337;SDS011;46221;51.178;5.900;2023-05-10T14:21:58;7.13;;;4.30;;
50337;SDS011;46221;51.178;5.900;2023-05-10T14:24:24;5.55;;;4.28;;
50337;SDS011;46221;51.178;5.900;2023-05-10T14:26:51;5.82;;;4.55;;
50337;SDS011;46221;51.178;5.900;2023-05-10T14:29:20;6.97;;;4.65;;
50337;SDS011;46221;51.178;5.900;2023-05-10T14:31:46;5.65;;;4.13;;
50337;SDS011;46221;51.178;5.900;2023-05-10T14:34:13;6.97;;;4.20;;
50337;SDS011;46221;51.178;5.900;2023-05-10T14:36:39;5.70;;;4.50;;
50337;SDS011;46221;51.178;5.900;2023-05-10T14:39:06;5.45;;;4.10;;
50337;SDS011;46221;51.178;5.900;2023-05-10T14:41:32;6.88;;;4.20;;
50337;SDS011;46221;51.178;5.900;2023-05-10T14:43:59;4.50;;;3.40;;
50337;SDS011;46221;51.178;5.900;2023-05-10T14:46:25;6.35;;;3.72;;
50337;SDS011;46221;51.178;5.900;2023-05-10T14:48:52;4.90;;;3.80;;
50337;SDS011;46221;51.178;5.900;2023-05-10T14:51:19;5.57;;;3.75;;
50337;SDS011;46221;51.178;5.900;2023-05-10T14:53:48;6.38;;;3.60;;
50337;SDS011;46221;51.178;5.900;2023-05-10T14:56:15;5.20;;;3.50;;
50337;SDS011;46221;51.178;5.900;2023-05-10T14:58:41;4.47;;;3.60;;
50337;SDS011;46221;51.178;5.900;2023-05-10T15:01:07;5.25;;;3.90;;
50337;SDS011;46221;51.178;5.900;2023-05-10T15:03:34;5.63;;;3.60;;
50337;SDS011;46221;51.178;5.900;2023-05-10T15:06:01;4.63;;;3.40;;
50337;SDS011;46221;51.178;5.900;2023-05-10T15:08:28;4.70;;;3.58;;
50337;SDS011;46221;51.178;5.900;2023-05-10T15:10:54;9.65;;;4.22;;
50337;SDS011;46221;51.178;5.900;2023-05-10T15:13:22;10.80;;;4.07;;
50337;SDS011;46221;51.178;5.900;2023-05-10T15:15:48;11.90;;;4.50;;
50337;SDS011;46221;51.178;5.900;2023-05-10T15:18:14;10.50;;;4.70;;